Time;durP1;ratioP1;P1;durP2;ratioP2;P2;SDS_P1;SDS_P2;PMS_P1;PMS_P2;Temp;Humidity;BMP_temperature;BMP_pressure;BME280_temperature;BME280_humidity;BME280_pressure;Samples;Min_cycle;Max_cycle;Signal;HPM_P1;HPM_P2
2023/05/13 00:00:20;;;;;;;;;;;;;;;11.31;98.20;95646.28;5073137;28;967;-53
2023/05/13 00:02:48;;;;;;;;;;;;;;;11.44;97.76;95653.91;5073053;28;1006;-53
2023/05/13 00:05:16;;;;;;;;;;;;;;;11.51;98.27;95653.16;5073066;28;1171;-53
2023/05/13 00:07:44;;;;;;;;;;;;;;;11.58;97.29;95664.09;5073145;28;1029;-53
2023/05/13 00:10:15;;;;;;;;;;;;;;;11.55;96.73;95668.91;5072970;28;2005;-53
2023/05/13 00:12:43;;;;;;;;;;;;;;;11.55;96.82;95672.41;5073455;28;942;-53
2023/05/13 00:15:11;;;;;;;;;;;;;;;11.58;98.00;95677.47;5073053;28;937;-53
2023/05/13 00:17:40;;;;;;;;;;;;;;;11.63;98.12;95666.28;5073138;28;1022;-53
2023/05/13 00:20:08;;;;;;;;;;;;;;;11.57;99.33;95666.91;5073263;28;969;-53
2023/05/13 00:22:36;;;;;;;;;;;;;;;11.44;99.35;95660.13;5073138;28;934;-53
2023/05/13 00:25:04;;;;;;;;;;;;;;;11.43;99.47;95662.97;5073135;28;974;-53
2023/05/13 00:27:33;;;;;;;;;;;;;;;11.39;99.90;95664.25;5072982;28;926;-53
2023/05/13 00:30:01;;;;;;;;;;;;;;;11.43;99.55;95663.78;5072786;28;1937;-53
2023/05/13 00:32:29;;;;;;;;;;;;;;;11.44;99.56;95665.47;5055387;28;1093;-53
2023/05/13 00:34:58;;;;;;;;;;;;;;;11.44;98.73;95662.81;5072973;28;1205;-53
2023/05/13 00:37:26;;;;;;;;;;;;;;;11.37;98.66;95655.53;5072575;28;1244;-53
2023/05/13 00:39:54;;;;;;;;;;;;;;;11.40;99.21;95658.75;5073094;28;942;-53
2023/05/13 00:42:23;;;;;;;;;;;;;;;11.49;99.02;95660.47;5072729;28;925;-53
2023/05/13 00:44:51;;;;;;;;;;;;;;;11.51;98.70;95653.16;5073001;28;993;-53
2023/05/13 00:47:20;;;;;;;;;;;;;;;11.36;99.75;95654.69;5072557;28;994;-53
2023/05/13 00:49:48;;;;;;;;;;;;;;;11.32;100.00;95647.94;5072652;28;1926;-53
2023/05/13 00:52:16;;;;;;;;;;;;;;;11.38;99.50;95657.22;5072561;28;969;-53
2023/05/13 00:54:44;;;;;;;;;;;;;;;11.40;99.40;95656.09;5073455;28;941;-53
2023/05/13 00:57:13;;;;;;;;;;;;;;;11.50;99.41;95664.03;5076299;28;930;-53
2023/05/13 00:59:41;;;;;;;;;;;;;;;11.53;99.38;95666.38;5076610;28;941;-53
2023/05/13 01:02:12;;;;;;;;;;;;;;;11.46;99.62;95663.50;5076486;28;894;-53
2023/05/13 01:04:43;;;;;;;;;;;;;;;11.40;100.00;95666.78;5076367;28;958;-53
2023/05/13 01:07:27;;;;;;;;;;;;;;;11.41;100.00;95673.81;5076473;28;1009;-53
2023/05/13 01:09:56;;;;;;;;;;;;;;;11.42;100.00;95677.31;5076095;28;1977;-53
2023/05/13 01:12:28;;;;;;;;;;;;;;;11.45;99.59;95669.81;5076174;28;957;-53
2023/05/13 01:15:07;;;;;;;;;;;;;;;11.42;99.44;95674.66;5076353;28;998;-53
2023/05/13 01:17:40;;;;;;;;;;;;;;;11.49;98.20;95670.38;5075972;28;982;-53
2023/05/13 01:20:08;;;;;;;;;;;;;;;11.44;95.87;95676.19;5075977;28;994;-53
2023/05/13 01:22:37;;;;;;;;;;;;;;;11.37;95.07;95669.75;5076143;28;950;-53
2023/05/13 01:25:05;;;;;;;;;;;;;;;11.23;97.16;95675.63;5076009;28;949;-53
2023/05/13 01:27:33;;;;;;;;;;;;;;;11.14;97.70;95666.69;5075775;28;1029;-53
2023/05/13 01:30:02;;;;;;;;;;;;;;;11.14;97.61;95672.06;5075841;28;1910;-53
2023/05/13 01:32:30;;;;;;;;;;;;;;;11.19;97.58;95677.78;5075608;28;1010;-53
2023/05/13 01:34:59;;;;;;;;;;;;;;;11.17;95.53;95668.22;5075624;28;1177;-53
2023/05/13 01:37:28;;;;;;;;;;;;;;;11.07;95.74;95666.44;5075556;28;1140;-53
2023/05/13 01:39:56;;;;;;;;;;;;;;;11.01;97.66;95660.88;5075905;28;946;-53
2023/05/13 01:42:26;;;;;;;;;;;;;;;10.98;95.76;95664.69;5075634;28;922;-53
2023/05/13 01:44:55;;;;;;;;;;;;;;;10.93;94.81;95669.66;5075845;28;926;-53
2023/05/13 01:47:23;;;;;;;;;;;;;;;10.86;94.29;95664.06;5075394;28;977;-53
2023/05/13 01:49:51;;;;;;;;;;;;;;;10.97;95.85;95675.56;5075661;28;1991;-53
2023/05/13 01:52:19;;;;;;;;;;;;;;;11.04;97.32;95669.44;5075619;28;934;-53
2023/05/13 01:54:48;;;;;;;;;;;;;;;10.99;96.10;95669.06;5075326;28;958;-53
2023/05/13 01:57:16;;;;;;;;;;;;;;;10.94;96.36;95677.50;5057823;28;1506;-53
2023/05/13 01:59:44;;;;;;;;;;;;;;;10.93;96.58;95675.84;5075502;28;988;-53
2023/05/13 02:02:12;;;;;;;;;;;;;;;10.90;96.96;95684.16;5075372;28;1036;-52
2023/05/13 02:04:41;;;;;;;;;;;;;;;10.93;98.11;95680.38;5075130;28;962;-53
2023/05/13 02:07:09;;;;;;;;;;;;;;;11.00;96.69;95676.06;5074229;28;1375;-53
2023/05/13 02:09:37;;;;;;;;;;;;;;;10.87;96.21;95667.56;5074993;28;1902;-53
2023/05/13 02:12:05;;;;;;;;;;;;;;;10.92;97.35;95679.50;5074912;28;1054;-53
2023/05/13 02:14:34;;;;;;;;;;;;;;;11.00;96.11;95686.78;5075052;28;953;-53
2023/05/13 02:17:02;;;;;;;;;;;;;;;11.05;95.70;95687.16;5075106;28;1004;-53
2023/05/13 02:19:30;;;;;;;;;;;;;;;11.05;96.60;95686.34;5074979;28;991;-53
2023/05/13 02:21:58;;;;;;;;;;;;;;;11.05;95.00;95695.19;5074997;28;941;-53
2023/05/13 02:24:29;;;;;;;;;;;;;;;11.01;95.11;95691.16;5074824;28;949;-53
2023/05/13 02:26:57;;;;;;;;;;;;;;;11.01;96.36;95685.78;5074705;28;1033;-53
2023/05/13 02:29:25;;;;;;;;;;;;;;;10.87;97.33;95675.59;5074756;28;1991;-53
2023/05/13 02:31:54;;;;;;;;;;;;;;;10.87;98.24;95684.47;5074514;28;1021;-52
2023/05/13 02:34:23;;;;;;;;;;;;;;;10.98;97.32;95687.94;5074812;28;966;-53
2023/05/13 02:36:51;;;;;;;;;;;;;;;10.99;97.05;95687.78;5074451;28;1147;-53
2023/05/13 02:39:19;;;;;;;;;;;;;;;10.95;98.03;95678.38;5074267;28;1164;-53
2023/05/13 02:41:48;;;;;;;;;;;;;;;10.99;97.90;95681.59;5074624;28;902;-53
2023/05/13 02:44:16;;;;;;;;;;;;;;;11.01;97.73;95672.41;5074578;28;977;-53
2023/05/13 02:46:44;;;;;;;;;;;;;;;10.98;97.72;95672.72;5074401;28;1009;-52
2023/05/13 02:49:12;;;;;;;;;;;;;;;10.87;98.21;95664.88;5074278;28;1914;-53
2023/05/13 02:51:41;;;;;;;;;;;;;;;10.78;98.83;95671.16;5074524;28;921;-53
2023/05/13 02:54:09;;;;;;;;;;;;;;;10.75;98.52;95672.28;5074161;28;970;-53
2023/05/13 02:56:37;;;;;;;;;;;;;;;10.72;99.45;95676.13;5074340;28;1001;-53
2023/05/13 02:59:05;;;;;;;;;;;;;;;10.72;99.96;95681.47;5074012;28;978;-53
2023/05/13 03:01:33;;;;;;;;;;;;;;;10.85;98.41;95682.94;5073988;28;1000;-53
2023/05/13 03:04:02;;;;;;;;;;;;;;;10.90;98.38;95677.97;5074008;28;1036;-54
2023/05/13 03:06:31;;;;;;;;;;;;;;;10.83;97.88;95682.25;5073873;28;925;-55
2023/05/13 03:08:59;;;;;;;;;;;;;;;10.88;97.11;95682.63;5073893;28;1029;-54
2023/05/13 03:11:27;;;;;;;;;;;;;;;10.91;96.51;95696.56;5073956;28;993;-54
2023/05/13 03:13:55;;;;;;;;;;;;;;;10.85;97.36;95699.84;5074123;28;1151;-53
2023/05/13 03:16:23;;;;;;;;;;;;;;;10.83;97.51;95714.34;5073963;28;1001;-54
2023/05/13 03:18:50;;;;;;;;;;;;;;;10.84;97.65;95708.00;5073812;28;1465;-53
2023/05/13 03:21:18;;;;;;;;;;;;;;;10.80;97.76;95706.63;5073904;28;953;-53
2023/05/13 03:23:46;;;;;;;;;;;;;;;10.85;99.58;95709.69;5073606;28;1029;-53
2023/05/13 03:26:15;;;;;;;;;;;;;;;10.77;97.56;95704.25;5073863;28;958;-53
2023/05/13 03:28:43;;;;;;;;;;;;;;;10.91;98.14;95709.94;5073894;28;1000;-52
2023/05/13 03:31:11;;;;;;;;;;;;;;;11.04;98.33;95703.38;5073635;28;1961;-53
2023/05/13 03:33:39;;;;;;;;;;;;;;;11.10;98.19;95714.34;5073544;28;933;-54
2023/05/13 03:36:08;;;;;;;;;;;;;;;11.08;98.44;95716.31;5073506;28;1225;-53
2023/05/13 03:38:36;;;;;;;;;;;;;;;11.08;99.46;95718.16;5073313;28;1089;-53
2023/05/13 03:41:04;;;;;;;;;;;;;;;11.14;98.74;95722.91;5073580;28;921;-53
2023/05/13 03:43:32;;;;;;;;;;;;;;;11.20;98.21;95724.13;5073525;28;1270;-53
2023/05/13 03:46:01;;;;;;;;;;;;;;;11.20;97.46;95724.13;5073453;28;929;-54
2023/05/13 03:48:29;;;;;;;;;;;;;;;11.19;96.78;95725.13;5073224;28;930;-54
2023/05/13 03:50:57;;;;;;;;;;;;;;;11.20;97.30;95726.81;5073303;28;1987;-54
2023/05/13 03:53:25;;;;;;;;;;;;;;;11.17;97.67;95719.06;5073376;28;1021;-54
2023/05/13 03:55:53;;;;;;;;;;;;;;;11.16;97.99;95715.56;5073520;28;942;-54
2023/05/13 03:58:21;;;;;;;;;;;;;;;11.19;97.93;95717.09;5073357;28;929;-54
2023/05/13 04:00:50;;;;;;;;;;;;;;;11.26;97.34;95734.22;5073048;28;993;-54
2023/05/13 04:03:18;;;;;;;;;;;;;;;11.27;97.36;95735.94;5072884;28;1008;-54
2023/05/13 04:05:46;;;;;;;;;;;;;;;11.23;97.67;95734.53;5073082;28;966;-54
2023/05/13 04:08:14;;;;;;;;;;;;;;;11.12;99.09;95727.56;5073207;28;1260;-54
2023/05/13 04:10:42;;;;;;;;;;;;;;;11.17;99.49;95735.13;5072846;28;1898;-53
2023/05/13 04:13:10;;;;;;;;;;;;;;;11.18;99.33;95744.88;5072842;28;955;-53
2023/05/13 04:15:38;;;;;;;;;;;;;;;11.22;98.51;95746.25;5072811;28;966;-53
2023/05/13 04:18:07;;;;;;;;;;;;;;;11.33;98.25;95741.50;5073137;28;973;-54
2023/05/13 04:20:38;;;;;;;;;;;;;;;11.46;97.05;95746.50;5073188;28;1144;-53
2023/05/13 04:23:07;;;;;;;;;;;;;;;11.64;95.93;95751.00;5072964;28;926;-54
2023/05/13 04:25:36;;;;;;;;;;;;;;;11.94;95.77;95759.69;5073074;28;1374;-55
2023/05/13 04:28:04;;;;;;;;;;;;;;;12.07;94.53;95754.78;5073216;28;1017;-53
2023/05/13 04:30:31;;;;;;;;;;;;;;;11.96;92.29;95744.31;5074250;28;2369;-54
2023/05/13 04:32:59;;;;;;;;;;;;;;;11.88;93.97;95739.69;5076772;28;955;-54
2023/05/13 04:35:27;;;;;;;;;;;;;;;11.87;92.31;95754.91;5076756;28;1153;-54
2023/05/13 04:37:55;;;;;;;;;;;;;;;11.84;93.08;95752.53;5076796;28;1099;-54
2023/05/13 04:40:22;;;;;;;;;;;;;;;11.90;93.34;95757.31;5076504;28;1569;-53
2023/05/13 04:42:53;;;;;;;;;;;;;;;11.76;93.90;95748.94;5076662;28;1009;-54
2023/05/13 04:45:22;;;;;;;;;;;;;;;11.67;93.45;95748.03;5076795;28;953;-53
2023/05/13 04:47:50;;;;;;;;;;;;;;;11.78;94.10;95749.63;5076631;28;1551;-53
2023/05/13 04:50:18;;;;;;;;;;;;;;;12.10;93.32;95733.88;5076565;28;1910;-53
2023/05/13 04:52:46;;;;;;;;;;;;;;;12.37;91.27;95737.41;5076726;28;1585;-53
2023/05/13 04:55:14;;;;;;;;;;;;;;;12.67;88.71;95741.44;5076410;28;970;-53
2023/05/13 04:57:42;;;;;;;;;;;;;;;12.60;86.68;95748.44;5076359;28;1120;-54
2023/05/13 05:00:11;;;;;;;;;;;;;;;12.36;89.28;95741.06;5076225;28;922;-53
2023/05/13 05:02:37;;;;;;;;;;;;;;;12.15;90.57;95740.59;5076538;28;1602;-53
2023/05/13 05:05:04;;;;;;;;;;;;;;;12.07;92.40;95746.72;5076655;28;2830;-54
2023/05/13 05:07:30;;;;;;;;;;;;;;;12.02;93.58;95749.88;5076254;28;1507;-54
2023/05/13 05:09:58;;;;;;;;;;;;;;;12.13;92.29;95740.75;5076088;28;1914;-53
2023/05/13 05:12:26;;;;;;;;;;;;;;;12.05;92.80;95744.19;5076274;28;937;-53
2023/05/13 05:14:55;;;;;;;;;;;;;;;11.89;93.17;95758.31;5076118;28;946;-53
2023/05/13 05:17:20;;;;;;;;;;;;;;;11.79;95.04;95749.47;5076198;28;1008;-53
2023/05/13 05:19:46;;;;;;;;;;;;;;;11.86;94.91;95753.22;5058399;28;1652;-54
2023/05/13 05:22:12;;;;;;;;;;;;;;;11.95;93.18;95756.00;5075988;28;1612;-53
2023/05/13 05:24:38;;;;;;;;;;;;;;;11.87;94.38;95762.09;5076019;28;1022;-53
2023/05/13 05:27:06;;;;;;;;;;;;;;;11.81;93.14;95754.69;5076043;28;1457;-53
2023/05/13 05:29:32;;;;;;;;;;;;;;;11.73;93.00;95761.66;5075860;28;1913;-53
2023/05/13 05:31:58;;;;;;;;;;;;;;;11.61;93.40;95762.03;5058153;28;1643;-53
2023/05/13 05:34:23;;;;;;;;;;;;;;;11.68;94.30;95768.47;5058082;28;1447;-53
2023/05/13 05:36:49;;;;;;;;;;;;;;;11.78;94.57;95769.25;5058002;28;1170;-54
2023/05/13 05:39:15;;;;;;;;;;;;;;;12.13;93.46;95770.22;5075322;28;1440;-53
2023/05/13 05:41:41;;;;;;;;;;;;;;;12.22;90.57;95766.63;5074360;28;1513;-54
2023/05/13 05:44:07;;;;;;;;;;;;;;;12.12;92.73;95771.22;5075600;28;1647;-54
2023/05/13 05:46:35;;;;;;;;;;;;;;;12.35;91.87;95770.72;5075534;28;1680;-55
2023/05/13 05:49:02;;;;;;;;;;;;;;;12.37;91.90;95776.75;5057921;28;1608;-55
2023/05/13 05:51:28;;;;;;;;;;;;;;;12.25;91.47;95777.00;5075194;28;1910;-54
2023/05/13 05:53:54;;;;;;;;;;;;;;;12.38;91.08;95773.94;5075453;28;1538;-54
2023/05/13 05:56:21;;;;;;;;;;;;;;;12.61;88.84;95762.66;5075393;28;2199;-54
2023/05/13 05:58:46;;;;;;;;;;;;;;;12.74;88.73;95776.50;5075372;28;1594;-54
2023/05/13 06:01:12;;;;;;;;;;;;;;;12.85;88.36;95780.75;5075334;28;1705;-55
2023/05/13 06:03:38;;;;;;;;;;;;;;;12.73;91.06;95790.06;5057645;28;1501;-55
2023/05/13 06:06:04;;;;;;;;;;;;;;;12.81;90.46;95779.41;5057639;28;1420;-55
2023/05/13 06:08:31;;;;;;;;;;;;;;;12.90;90.96;95773.09;5075175;28;1548;-55
2023/05/13 06:10:57;;;;;;;;;;;;;;;12.68;89.93;95775.28;5074813;28;1993;-55
2023/05/13 06:13:23;;;;;;;;;;;;;;;12.89;90.12;95780.25;5074928;28;2220;-55
2023/05/13 06:15:49;;;;;;;;;;;;;;;12.96;89.99;95769.75;5075075;28;1775;-55
2023/05/13 06:18:15;;;;;;;;;;;;;;;12.99;88.43;95766.72;5075023;28;1410;-55
2023/05/13 06:20:41;;;;;;;;;;;;;;;13.16;89.31;95767.63;5075124;28;1227;-55
2023/05/13 06:23:09;;;;;;;;;;;;;;;13.35;89.51;95766.56;5057191;28;1406;-54
2023/05/13 06:25:36;;;;;;;;;;;;;;;13.32;87.94;95776.78;5074741;28;1616;-53
2023/05/13 06:28:05;;;;;;;;;;;;;;;13.10;89.58;95770.97;5074758;28;1497;-54
2023/05/13 06:30:30;;;;;;;;;;;;;;;13.35;90.00;95769.25;5074504;28;1910;-55
2023/05/13 06:32:57;;;;;;;;;;;;;;;13.17;89.44;95769.31;5074848;28;1689;-54
2023/05/13 06:35:23;;;;;;;;;;;;;;;13.26;89.01;95771.03;5074533;28;1466;-54
2023/05/13 06:37:49;;;;;;;;;;;;;;;13.33;88.84;95776.63;5074296;28;1319;-54
2023/05/13 06:40:15;;;;;;;;;;;;;;;13.53;87.37;95763.75;5074586;28;2075;-54
2023/05/13 06:42:41;;;;;;;;;;;;;;;13.56;85.89;95758.03;5056520;28;2208;-54
2023/05/13 06:45:07;;;;;;;;;;;;;;;13.47;88.18;95767.94;5074571;28;1481;-54
2023/05/13 06:47:35;;;;;;;;;;;;;;;13.12;87.74;95766.28;5073850;28;1234;-54
2023/05/13 06:50:02;;;;;;;;;;;;;;;13.25;88.50;95776.56;5073957;28;2051;-54
2023/05/13 06:52:30;;;;;;;;;;;;;;;13.21;89.15;95781.44;5073888;28;1271;-54
2023/05/13 06:54:58;;;;;;;;;;;;;;;13.31;90.29;95775.13;5074003;28;2087;-54
2023/05/13 06:57:27;;;;;;;;;;;;;;;13.06;88.93;95783.88;5074229;28;941;-54
2023/05/13 06:59:52;;;;;;;;;;;;;;;12.93;87.27;95778.09;5074146;28;1456;-54
2023/05/13 07:02:18;;;;;;;;;;;;;;;13.25;88.90;95780.09;5074151;28;1472;-53
2023/05/13 07:04:45;;;;;;;;;;;;;;;13.41;88.28;95784.72;5074158;28;2420;-54
2023/05/13 07:07:11;;;;;;;;;;;;;;;13.38;87.80;95789.56;5073984;28;1498;-54
2023/05/13 07:09:37;;;;;;;;;;;;;;;13.28;86.60;95787.00;5073813;28;1970;-54
2023/05/13 07:12:03;;;;;;;;;;;;;;;13.42;88.39;95790.94;5056256;28;1464;-54
2023/05/13 07:14:29;;;;;;;;;;;;;;;13.65;86.19;95800.06;5073912;28;1740;-54
2023/05/13 07:16:54;;;;;;;;;;;;;;;13.79;86.63;95793.22;5073934;28;938;-54
2023/05/13 07:19:21;;;;;;;;;;;;;;;13.78;86.91;95794.22;5073503;28;1543;-54
2023/05/13 07:21:49;;;;;;;;;;;;;;;13.85;88.74;95803.31;5056208;28;1155;-54
2023/05/13 07:24:14;;;;;;;;;;;;;;;13.93;83.45;95807.84;5073740;28;1963;-54
2023/05/13 07:26:40;;;;;;;;;;;;;;;13.99;86.47;95807.19;5073651;28;991;-54
2023/05/13 07:29:07;;;;;;;;;;;;;;;14.18;86.39;95808.69;5073682;28;1928;-54
2023/05/13 07:31:35;;;;;;;;;;;;;;;14.27;82.18;95808.72;5073101;28;1925;-54
2023/05/13 07:34:01;;;;;;;;;;;;;;;14.24;83.83;95804.50;5073363;28;2033;-54
2023/05/13 07:36:27;;;;;;;;;;;;;;;14.04;85.69;95798.63;5073592;28;2031;-54
2023/05/13 07:39:29;;;;;;;;;;;;;;;13.97;84.19;95794.91;5053288;28;1613;-54
2023/05/13 07:41:55;;;;;;;;;;;;;;;14.12;87.57;95801.31;5073014;28;1678;-54
2023/05/13 07:44:21;;;;;;;;;;;;;;;14.33;84.84;95798.13;5073382;28;1149;-54
2023/05/13 07:46:50;;;;;;;;;;;;;;;14.50;83.16;95796.25;5073480;28;2130;-54
2023/05/13 07:49:16;;;;;;;;;;;;;;;14.50;83.96;95798.94;5073294;28;1985;-54
2023/05/13 07:51:42;;;;;;;;;;;;;;;14.68;82.02;95797.94;5073301;28;1462;-54
2023/05/13 07:54:08;;;;;;;;;;;;;;;14.64;82.93;95803.69;5073475;28;1931;-54
2023/05/13 07:56:37;;;;;;;;;;;;;;;14.57;83.46;95800.00;5073290;28;894;-53
2023/05/13 07:59:05;;;;;;;;;;;;;;;14.67;79.83;95801.66;5073265;28;1009;-54
2023/05/13 08:01:31;;;;;;;;;;;;;;;14.85;80.34;95802.28;5073169;28;1493;-54
2023/05/13 08:03:59;;;;;;;;;;;;;;;14.96;80.36;95796.53;5073054;28;954;-54
2023/05/13 08:06:25;;;;;;;;;;;;;;;15.05;77.68;95794.66;5072912;28;958;-54
2023/05/13 08:08:50;;;;;;;;;;;;;;;15.25;79.42;95794.25;5073005;28;1722;-53
2023/05/13 08:11:16;;;;;;;;;;;;;;;15.21;79.54;95799.16;5072770;28;1986;-54
2023/05/13 08:13:42;;;;;;;;;;;;;;;15.08;80.16;95796.16;5055466;28;1759;-54
2023/05/13 08:16:08;;;;;;;;;;;;;;;15.03;80.96;95800.22;5073104;28;1628;-54
2023/05/13 08:18:33;;;;;;;;;;;;;;;15.16;77.74;95793.47;5073014;28;1126;-54
2023/05/13 08:21:00;;;;;;;;;;;;;;;15.51;77.41;95797.50;5073148;28;907;-57
2023/05/13 08:23:26;;;;;;;;;;;;;;;15.48;74.92;95800.56;5072984;28;1684;-55
2023/05/13 08:25:54;;;;;;;;;;;;;;;15.52;76.13;95801.88;5072824;28;898;-54
2023/05/13 08:28:20;;;;;;;;;;;;;;;15.68;77.79;95802.81;5055252;28;1837;-55
2023/05/13 08:30:46;;;;;;;;;;;;;;;15.75;78.48;95803.84;5072583;28;1913;-54
2023/05/13 08:33:11;;;;;;;;;;;;;;;15.85;76.30;95796.34;5073010;28;1576;-55
2023/05/13 08:35:38;;;;;;;;;;;;;;;16.18;76.56;95788.88;5072894;28;1569;-53
2023/05/13 08:38:04;;;;;;;;;;;;;;;16.42;74.56;95780.75;5072898;28;969;-54
2023/05/13 08:40:33;;;;;;;;;;;;;;;16.63;75.52;95785.47;5072527;28;1472;-54
2023/05/13 08:43:01;;;;;;;;;;;;;;;16.85;75.37;95784.59;5072490;28;1437;-54
2023/05/13 08:45:31;;;;;;;;;;;;;;;16.88;73.16;95784.22;5072668;28;937;-54
2023/05/13 08:48:00;;;;;;;;;;;;;;;16.77;74.52;95785.50;5073031;28;933;-54
2023/05/13 08:50:29;;;;;;;;;;;;;;;16.69;76.06;95782.00;5072806;28;1994;-54
2023/05/13 08:52:58;;;;;;;;;;;;;;;16.76;73.79;95774.88;5073087;28;1030;-54
2023/05/13 08:55:27;;;;;;;;;;;;;;;17.23;70.97;95772.88;5072663;28;946;-54
2023/05/13 08:57:55;;;;;;;;;;;;;;;17.41;71.45;95778.72;5072543;28;940;-54
2023/05/13 09:00:23;;;;;;;;;;;;;;;18.27;70.89;95772.63;5072768;28;965;-54
2023/05/13 09:02:50;;;;;;;;;;;;;;;17.72;69.62;95772.25;5072862;28;1093;-54
2023/05/13 09:05:19;;;;;;;;;;;;;;;18.11;67.58;95768.31;5072189;28;988;-54
2023/05/13 09:07:47;;;;;;;;;;;;;;;18.16;68.23;95768.56;5072500;28;965;-54
2023/05/13 09:10:16;;;;;;;;;;;;;;;18.33;70.93;95761.84;5072440;28;1909;-54
2023/05/13 09:12:46;;;;;;;;;;;;;;;18.05;73.34;95764.50;5072307;28;962;-54
2023/05/13 09:15:16;;;;;;;;;;;;;;;17.98;70.25;95762.75;5072665;28;1015;-54
2023/05/13 09:17:46;;;;;;;;;;;;;;;18.03;71.00;95769.25;5076441;28;1061;-54
2023/05/13 09:20:16;;;;;;;;;;;;;;;17.83;67.75;95765.47;5076310;28;1023;-54
2023/05/13 09:22:47;;;;;;;;;;;;;;;18.17;70.38;95764.81;5076248;28;930;-54
2023/05/13 09:25:17;;;;;;;;;;;;;;;18.41;67.65;95757.34;5075714;28;993;-54
2023/05/13 09:27:46;;;;;;;;;;;;;;;18.99;66.50;95762.59;5076185;28;989;-54
2023/05/13 09:30:13;;;;;;;;;;;;;;;19.27;66.06;95774.25;5075726;28;1914;-56
2023/05/13 09:32:42;;;;;;;;;;;;;;;19.46;64.07;95769.09;5076108;28;961;-56
2023/05/13 09:35:17;;;;;;;;;;;;;;;19.69;66.95;95766.91;5075736;28;1158;-53
2023/05/13 09:37:46;;;;;;;;;;;;;;;19.31;66.46;95758.38;5075599;28;910;-53
2023/05/13 09:40:16;;;;;;;;;;;;;;;19.61;69.54;95764.38;5075211;28;1069;-54
2023/05/13 09:42:44;;;;;;;;;;;;;;;19.73;65.84;95755.69;5075637;28;1015;-54
2023/05/13 09:45:14;;;;;;;;;;;;;;;20.08;67.34;95759.94;5075792;28;970;-54
2023/05/13 09:47:42;;;;;;;;;;;;;;;19.94;66.92;95757.41;5075576;28;1005;-53
2023/05/13 09:50:11;;;;;;;;;;;;;;;19.66;64.59;95761.88;5075242;28;1913;-53
2023/05/13 09:52:39;;;;;;;;;;;;;;;19.18;70.30;95745.63;5075718;28;953;-54
2023/05/13 09:55:07;;;;;;;;;;;;;;;18.81;69.90;95750.38;5057823;28;1026;-54
2023/05/13 09:57:37;;;;;;;;;;;;;;;18.86;69.94;95749.81;5075312;28;990;-53
2023/05/13 10:00:05;;;;;;;;;;;;;;;18.63;72.57;95761.69;5075308;28;1006;-54
2023/05/13 10:02:34;;;;;;;;;;;;;;;18.32;73.76;95760.16;5075191;28;957;-54
2023/05/13 10:05:02;;;;;;;;;;;;;;;18.04;71.02;95761.97;5075206;28;965;-53
2023/05/13 10:07:32;;;;;;;;;;;;;;;17.98;71.74;95747.34;5075046;28;970;-53
2023/05/13 10:10:01;;;;;;;;;;;;;;;18.03;71.53;95741.38;5075056;28;1926;-54
2023/05/13 10:12:30;;;;;;;;;;;;;;;17.97;69.91;95745.69;5075360;28;941;-53
2023/05/13 10:15:00;;;;;;;;;;;;;;;17.62;71.94;95740.06;5075333;28;974;-54
2023/05/13 10:17:29;;;;;;;;;;;;;;;17.47;73.33;95750.94;5075261;28;890;-54
2023/05/13 10:19:55;;;;;;;;;;;;;;;17.30;73.70;95744.91;5075154;28;1418;-54
2023/05/13 10:22:28;;;;;;;;;;;;;;;17.39;74.57;95752.91;5074631;28;1556;-54
2023/05/13 10:24:56;;;;;;;;;;;;;;;17.53;77.27;95750.19;5074922;28;1651;-54
2023/05/13 10:27:26;;;;;;;;;;;;;;;17.57;76.58;95747.94;5074206;28;2408;-54
2023/05/13 10:29:54;;;;;;;;;;;;;;;17.45;76.44;95736.75;5074632;28;1918;-54
2023/05/13 10:32:23;;;;;;;;;;;;;;;17.33;78.69;95740.97;5074767;28;1146;-54
2023/05/13 10:34:52;;;;;;;;;;;;;;;17.15;78.29;95746.78;5074532;28;2030;-53
2023/05/13 10:37:18;;;;;;;;;;;;;;;17.13;81.24;95741.56;5054666;28;1010;-53
2023/05/13 10:40:11;;;;;;;;;;;;;;;17.26;81.56;95743.59;5054107;28;1532;-54
2023/05/13 10:42:42;;;;;;;;;;;;;;;17.27;80.31;95742.56;5054681;28;2339;-54
2023/05/13 10:45:08;;;;;;;;;;;;;;;17.21;82.55;95737.09;5054602;28;2109;-54
2023/05/13 10:47:35;;;;;;;;;;;;;;;17.07;81.85;95739.59;5054438;28;1563;-54
2023/05/13 10:50:05;;;;;;;;;;;;;;;17.01;84.19;95740.34;5054409;28;1996;-55
2023/05/13 10:52:41;;;;;;;;;;;;;;;17.11;83.94;95740.91;5054442;28;1458;-54
2023/05/13 10:55:13;;;;;;;;;;;;;;;17.13;84.90;95740.72;5054310;28;947;-54
2023/05/13 10:57:41;;;;;;;;;;;;;;;17.25;85.30;95747.31;5054367;28;1217;-54
2023/05/13 11:00:18;;;;;;;;;;;;;;;17.32;83.81;95748.25;5054302;28;2040;-54
2023/05/13 11:02:44;;;;;;;;;;;;;;;17.44;86.51;95736.97;5054203;28;1525;-54
2023/05/13 11:05:18;;;;;;;;;;;;;;;17.42;83.58;95731.75;5054252;28;1120;-55
2023/05/13 11:07:55;;;;;;;;;;;;;;;17.49;86.49;95734.50;5053805;28;1513;-55
2023/05/13 11:10:27;;;;;;;;;;;;;;;17.78;81.89;95720.09;5053808;28;1922;-56
2023/05/13 11:13:10;;;;;;;;;;;;;;;18.23;78.80;95717.19;5054065;28;1743;-56
2023/05/13 11:15:42;;;;;;;;;;;;;;;18.00;76.66;95715.53;5053989;28;1457;-56
2023/05/13 11:18:08;;;;;;;;;;;;;;;17.95;79.33;95715.28;5053907;28;1572;-55
2023/05/13 11:20:36;;;;;;;;;;;;;;;17.87;74.43;95702.72;5036251;28;1972;-55
2023/05/13 11:23:02;;;;;;;;;;;;;;;17.81;74.68;95697.22;5053923;28;1623;-55
2023/05/13 11:25:27;;;;;;;;;;;;;;;17.75;77.84;95699.66;5053420;28;1552;-54
2023/05/13 11:27:54;;;;;;;;;;;;;;;17.70;76.72;95695.84;5053792;28;1567;-54
2023/05/13 11:30:26;;;;;;;;;;;;;;;17.53;78.06;95692.56;5053541;28;1894;-55
2023/05/13 11:32:58;;;;;;;;;;;;;;;17.33;81.66;95693.16;5053651;28;1541;-54
2023/05/13 11:35:26;;;;;;;;;;;;;;;17.26;80.73;95692.25;5058036;28;1532;-54
2023/05/13 11:37:54;;;;;;;;;;;;;;;17.42;82.11;95682.25;5073345;28;2101;-54
2023/05/13 11:40:27;;;;;;;;;;;;;;;17.56;82.60;95682.19;5073062;28;1089;-55
2023/05/13 11:42:53;;;;;;;;;;;;;;;17.53;85.01;95684.47;5073629;28;962;-55
2023/05/13 11:45:20;;;;;;;;;;;;;;;17.61;85.22;95680.81;5055642;28;1314;-55
2023/05/13 11:47:45;;;;;;;;;;;;;;;17.62;84.12;95683.28;5073540;28;1552;-55
2023/05/13 11:50:21;;;;;;;;;;;;;;;17.79;81.86;95672.22;5073254;28;2016;-54
2023/05/13 11:52:54;;;;;;;;;;;;;;;18.23;79.60;95674.75;5073523;28;1682;-55
2023/05/13 11:55:30;;;;;;;;;;;;;;;18.68;75.40;95677.13;5073258;28;1488;-54
2023/05/13 11:57:57;;;;;;;;;;;;;;;18.85;73.40;95677.69;5073296;28;1664;-55
2023/05/13 12:00:27;;;;;;;;;;;;;;;18.95;70.86;95680.03;5073283;28;1616;-55
2023/05/13 12:02:53;;;;;;;;;;;;;;;19.07;69.38;95671.13;5073306;28;1434;-55
2023/05/13 12:05:19;;;;;;;;;;;;;;;19.09;66.32;95671.75;5055520;28;1541;-55
2023/05/13 12:07:45;;;;;;;;;;;;;;;18.91;68.42;95676.88;5073391;28;1448;-55
2023/05/13 12:10:11;;;;;;;;;;;;;;;18.85;68.96;95669.56;5072927;28;1976;-55
2023/05/13 12:12:38;;;;;;;;;;;;;;;18.82;65.97;95668.09;5073248;28;1441;-55
2023/05/13 12:15:07;;;;;;;;;;;;;;;18.74;71.39;95660.06;5073241;28;1588;-55
2023/05/13 12:17:32;;;;;;;;;;;;;;;18.65;72.47;95658.59;5073115;28;1465;-55
2023/05/13 12:20:05;;;;;;;;;;;;;;;18.76;72.98;95666.13;5073320;28;1912;-55
2023/05/13 12:22:33;;;;;;;;;;;;;;;18.76;72.43;95662.59;5073320;28;1384;-55
2023/05/13 12:25:21;;;;;;;;;;;;;;;18.72;71.38;95668.44;5072931;28;914;-55
2023/05/13 12:27:54;;;;;;;;;;;;;;;18.66;72.77;95657.53;5072880;28;2486;-55
2023/05/13 12:30:20;;;;;;;;;;;;;;;18.79;74.77;95660.31;5072652;28;1906;-55
2023/05/13 12:32:48;;;;;;;;;;;;;;;18.85;72.66;95653.28;5073112;28;1500;-55
2023/05/13 12:35:14;;;;;;;;;;;;;;;18.79;72.72;95656.78;5073018;28;2056;-55
2023/05/13 12:37:40;;;;;;;;;;;;;;;18.76;75.88;95643.63;5073042;28;1423;-55
2023/05/13 12:40:12;;;;;;;;;;;;;;;18.67;76.59;95640.25;5072434;28;2268;-55
2023/05/13 12:42:37;;;;;;;;;;;;;;;18.56;77.08;95635.41;5072954;28;1623;-55
2023/05/13 12:45:04;;;;;;;;;;;;;;;18.57;76.98;95627.06;5072982;28;1788;-54
2023/05/13 12:47:46;;;;;;;;;;;;;;;18.52;75.75;95629.56;5072886;28;1583;-55
2023/05/13 12:50:14;;;;;;;;;;;;;;;18.44;74.76;95618.84;5072487;28;1918;-55
2023/05/13 12:52:41;;;;;;;;;;;;;;;18.54;74.38;95616.66;5076573;28;1472;-55
2023/05/13 12:55:07;;;;;;;;;;;;;;;18.54;72.44;95622.06;5076573;28;998;-55
2023/05/13 12:57:33;;;;;;;;;;;;;;;18.63;75.26;95626.28;5076521;28;1586;-55
2023/05/13 12:59:59;;;;;;;;;;;;;;;18.68;72.43;95622.97;5076559;28;1402;-55
2023/05/13 13:02:25;;;;;;;;;;;;;;;18.71;72.17;95611.75;5076494;28;906;-55
2023/05/13 13:04:51;;;;;;;;;;;;;;;18.74;75.10;95611.31;5076567;28;1638;-56